createdAt,value
2018-02-17T00:00:55.111Z,2.00
2018-02-17T00:03:22.644Z,2.00
2018-02-17T00:05:50.151Z,2.00
2018-02-17T00:08:18.441Z,1.90
2018-02-17T00:10:45.974Z,1.90
2018-02-17T00:13:13.463Z,1.90
2018-02-17T00:15:40.966Z,1.90
2018-02-17T00:18:08.523Z,1.90
2018-02-17T00:20:36.030Z,1.80
2018-02-17T00:23:04.304Z,1.90
2018-02-17T00:25:32.582Z,1.80
2018-02-17T00:28:00.890Z,1.80
2018-02-17T00:30:28.393Z,1.80
2018-02-17T00:32:55.941Z,1.80
2018-02-17T00:35:23.452Z,1.80
2018-02-17T00:37:51.743Z,1.70
2018-02-17T00:40:19.251Z,1.70
2018-02-17T00:42:46.769Z,1.70
2018-02-17T00:45:14.265Z,1.70
2018-02-17T00:47:41.795Z,1.70
2018-02-17T00:50:10.093Z,1.70
2018-02-17T00:52:37.612Z,1.70
2018-02-17T00:55:05.909Z,1.70
2018-02-17T00:57:33.478Z,1.70
2018-02-17T01:00:01.738Z,1.70
2018-02-17T01:02:29.246Z,1.60
2018-02-17T01:04:56.747Z,1.70
2018-02-17T01:07:25.045Z,1.70
2018-02-17T01:09:52.543Z,1.70
2018-02-17T01:12:20.049Z,1.70
2018-02-17T01:14:47.592Z,1.70
2018-02-17T01:17:15.873Z,1.70
2018-02-17T01:19:44.176Z,1.70
2018-02-17T01:22:11.698Z,1.70
2018-02-17T01:24:39.979Z,1.80
2018-02-17T01:27:08.268Z,1.70
2018-02-17T01:29:35.771Z,1.70
2018-02-17T01:32:03.291Z,1.80
2018-02-17T01:34:30.799Z,1.70
2018-02-17T01:36:58.311Z,1.70
2018-02-17T01:39:25.854Z,1.70
2018-02-17T01:41:54.126Z,1.70
2018-02-17T01:44:22.454Z,1.70
2018-02-17T01:46:49.979Z,1.70
2018-02-17T01:49:18.282Z,1.80
2018-02-17T01:51:45.805Z,1.80
2018-02-17T01:54:14.075Z,1.80
2018-02-17T01:56:42.369Z,1.80
2018-02-17T01:59:09.890Z,1.80
2018-02-17T02:01:37.384Z,1.80
2018-02-17T02:04:04.900Z,1.70
2018-02-17T02:06:32.465Z,1.80
2018-02-17T02:08:59.963Z,1.80
2018-02-17T02:11:27.466Z,1.90
2018-02-17T02:13:54.985Z,2.00
2018-02-17T02:16:22.526Z,2.00
2018-02-17T02:18:50.797Z,2.00
2018-02-17T02:21:18.364Z,2.00
2018-02-17T02:23:45.893Z,2.20
2018-02-17T02:26:13.399Z,2.20
2018-02-17T02:28:40.926Z,2.20
2018-02-17T02:31:08.421Z,2.20
2018-02-17T02:33:35.933Z,2.20
2018-02-17T02:36:03.435Z,2.20
2018-02-17T02:38:30.947Z,2.20
2018-02-17T02:40:58.465Z,2.20
2018-02-17T02:43:25.992Z,2.20
2018-02-17T02:45:54.300Z,2.20
2018-02-17T02:48:21.793Z,2.20
2018-02-17T02:50:49.303Z,2.30
2018-02-17T02:53:16.829Z,2.20
2018-02-17T02:55:44.316Z,2.20
2018-02-17T02:58:12.586Z,2.20
2018-02-17T03:00:40.150Z,2.10
2018-02-17T03:03:07.671Z,2.20
2018-02-17T03:05:35.237Z,2.20
2018-02-17T03:08:02.724Z,2.20
2018-02-17T03:10:31.024Z,2.20
2018-02-17T03:12:58.569Z,2.10
2018-02-17T03:15:26.075Z,2.10
2018-02-17T03:17:53.586Z,1.90
2018-02-17T03:20:21.132Z,2.00
2018-02-17T03:22:49.393Z,1.90
2018-02-17T03:25:16.932Z,1.90
2018-02-17T03:27:44.452Z,1.90
2018-02-17T03:30:11.949Z,2.00
2018-02-17T03:32:39.487Z,1.90
2018-02-17T03:35:06.998Z,1.90
2018-02-17T03:37:35.293Z,1.90
2018-02-17T03:40:02.791Z,1.90
2018-02-17T03:42:30.295Z,1.80
2018-02-17T03:44:58.604Z,1.80
2018-02-17T03:47:26.180Z,1.80
2018-02-17T03:49:53.688Z,1.70
2018-02-17T03:52:21.971Z,1.70
2018-02-17T03:54:49.482Z,1.70
2018-02-17T03:57:16.990Z,1.80
2018-02-17T03:59:45.251Z,1.80
2018-02-17T04:02:13.536Z,1.70
2018-02-17T04:04:41.792Z,1.70
2018-02-17T04:07:10.061Z,1.50
2018-02-17T04:09:37.589Z,1.50
2018-02-17T04:12:05.124Z,1.50
2018-02-17T04:14:32.635Z,1.50
2018-02-17T04:17:00.123Z,1.50
2018-02-17T04:19:27.638Z,1.60
2018-02-17T04:21:55.166Z,1.50
2018-02-17T04:24:22.666Z,1.50
2018-02-17T04:26:50.272Z,1.50
2018-02-17T04:29:17.807Z,1.60
2018-02-17T04:31:46.111Z,1.70
2018-02-17T04:34:13.639Z,1.70
2018-02-17T04:36:41.930Z,1.70
2018-02-17T04:39:09.446Z,1.70
2018-02-17T04:41:53.663Z,1.70
2018-02-17T04:44:25.798Z,1.70
2018-02-17T04:46:59.789Z,1.70
2018-02-17T04:49:31.787Z,1.70
2018-02-17T04:55:03.742Z,1.70
2018-02-17T04:57:47.690Z,1.70
2018-02-17T05:00:19.660Z,1.60
2018-02-17T05:02:58.898Z,1.60
2018-02-17T05:05:26.415Z,1.60
2018-02-17T05:07:55.576Z,1.60
2018-02-17T05:10:23.083Z,1.70
2018-02-17T05:12:51.370Z,1.70
2018-02-17T05:15:19.641Z,1.80
2018-02-17T05:18:06.804Z,1.70
2018-02-17T05:20:34.329Z,1.60
2018-02-17T05:23:01.819Z,1.80
2018-02-17T05:25:29.829Z,1.80
2018-02-17T05:27:59.157Z,1.80
2018-02-17T05:30:39.442Z,1.80
2018-02-17T05:33:12.687Z,1.70
2018-02-17T05:35:46.648Z,1.80
2018-02-17T05:38:14.201Z,1.80
2018-02-17T05:40:45.386Z,1.80
2018-02-17T05:43:12.951Z,1.80
2018-02-17T05:45:40.462Z,1.90
2018-02-17T05:48:07.959Z,2.00
2018-02-17T05:50:35.506Z,2.10
2018-02-17T05:53:03.017Z,2.00
2018-02-17T05:55:30.555Z,2.10
2018-02-17T05:57:58.837Z,1.90
2018-02-17T06:00:27.111Z,2.00
2018-02-17T06:02:55.382Z,2.00
2018-02-17T06:05:23.684Z,2.00
2018-02-17T06:07:51.182Z,2.00
2018-02-17T06:10:18.728Z,2.10
2018-02-17T06:12:46.231Z,2.00
2018-02-17T06:15:14.514Z,1.90
2018-02-17T06:17:42.775Z,2.00
2018-02-17T06:20:11.051Z,2.10
2018-02-17T06:22:38.552Z,2.10
2018-02-17T06:25:06.063Z,2.10
2018-02-17T06:27:33.554Z,2.10
2018-02-17T06:30:01.063Z,2.10
2018-02-17T06:32:28.587Z,2.10
2018-02-17T06:34:56.084Z,2.10
2018-02-17T06:37:23.597Z,2.10
2018-02-17T06:39:51.114Z,2.20
2018-02-17T06:42:19.395Z,2.20
2018-02-17T06:44:47.706Z,2.30
2018-02-17T06:47:15.223Z,2.30
2018-02-17T06:49:43.510Z,2.10
2018-02-17T06:52:11.792Z,2.20
2018-02-17T06:54:40.085Z,2.20
2018-02-17T06:57:07.614Z,2.20
2018-02-17T06:59:35.909Z,2.10
2018-02-17T07:02:03.452Z,2.10
2018-02-17T07:04:31.744Z,2.20
2018-02-17T07:07:00.046Z,2.30
2018-02-17T07:09:27.566Z,2.30
2018-02-17T07:11:55.849Z,2.30
2018-02-17T07:14:24.136Z,2.30
2018-02-17T07:16:51.642Z,2.30
2018-02-17T07:19:19.143Z,2.40
2018-02-17T07:21:47.454Z,2.50
2018-02-17T07:24:14.979Z,2.50
2018-02-17T07:26:43.292Z,2.60
2018-02-17T07:29:10.815Z,2.60
2018-02-17T07:31:39.941Z,2.60
2018-02-17T07:34:07.470Z,2.60
2018-02-17T07:36:34.978Z,2.60
2018-02-17T07:39:02.535Z,2.70
2018-02-17T07:41:30.026Z,2.60
2018-02-17T07:43:58.360Z,2.60
2018-02-17T07:46:25.858Z,2.60
2018-02-17T07:48:53.406Z,2.60
2018-02-17T07:51:20.949Z,2.70
2018-02-17T07:53:48.434Z,2.70
2018-02-17T07:56:16.728Z,2.90
2018-02-17T07:58:44.999Z,2.90
2018-02-17T08:01:13.335Z,2.90
2018-02-17T08:03:40.824Z,2.90
2018-02-17T08:06:09.108Z,3.00
2018-02-17T08:08:37.436Z,3.00
2018-02-17T08:11:04.957Z,2.90
2018-02-17T08:13:33.259Z,2.90
2018-02-17T08:16:00.767Z,2.90
2018-02-17T08:18:28.292Z,2.80
2018-02-17T08:20:55.808Z,2.90
2018-02-17T08:23:23.339Z,2.90
2018-02-17T08:25:50.876Z,2.90
2018-02-17T08:28:18.389Z,2.90
2018-02-17T08:30:45.923Z,2.90
2018-02-17T08:33:14.201Z,3.00
2018-02-17T08:35:42.476Z,3.10
2018-02-17T08:38:10.770Z,3.10
2018-02-17T08:40:39.158Z,3.10
2018-02-17T08:43:06.667Z,3.00
2018-02-17T08:45:34.198Z,3.10
2018-02-17T08:48:04.656Z,3.10
2018-02-17T08:50:32.163Z,3.10
2018-02-17T08:53:00.458Z,3.20
2018-02-17T08:55:28.004Z,3.10
2018-02-17T08:57:55.526Z,3.20
2018-02-17T09:00:23.817Z,3.10
2018-02-17T09:02:52.107Z,3.10
2018-02-17T09:05:19.620Z,3.10
2018-02-17T09:07:47.118Z,3.20
2018-02-17T09:10:14.648Z,3.30
2018-02-17T09:12:42.150Z,3.20
2018-02-17T09:15:09.688Z,3.30
2018-02-17T09:17:37.967Z,3.30
2018-02-17T09:20:06.238Z,3.30
2018-02-17T09:22:34.554Z,3.30
2018-02-17T09:25:02.841Z,3.30
2018-02-17T09:27:30.372Z,3.40
2018-02-17T09:29:57.916Z,3.40
2018-02-17T09:32:26.181Z,3.50
2018-02-17T09:34:54.502Z,3.50
2018-02-17T09:37:22.450Z,3.40
2018-02-17T09:39:50.705Z,3.60
2018-02-17T09:42:18.974Z,3.60
2018-02-17T09:44:48.010Z,3.70
2018-02-17T09:47:15.569Z,3.70
2018-02-17T09:49:43.304Z,3.70
2018-02-17T09:52:11.547Z,3.70
2018-02-17T09:54:39.424Z,3.50
2018-02-17T09:57:07.007Z,3.50
2018-02-17T09:59:36.469Z,3.50
2018-02-17T10:02:04.805Z,3.50
2018-02-17T10:04:34.058Z,3.60
2018-02-17T10:07:01.613Z,3.60
2018-02-17T10:09:29.159Z,3.50
2018-02-17T10:11:57.212Z,3.40
2018-02-17T10:14:24.759Z,3.40
2018-02-17T10:16:53.082Z,3.50
2018-02-17T10:19:20.615Z,3.50
2018-02-17T10:21:48.133Z,3.60
2018-02-17T10:24:15.664Z,3.40
2018-02-17T10:26:43.214Z,3.40
2018-02-17T10:29:12.899Z,3.50
2018-02-17T10:31:41.219Z,3.60
2018-02-17T10:34:10.111Z,3.60
2018-02-17T10:36:38.437Z,3.50
2018-02-17T10:39:06.922Z,3.50
2018-02-17T10:41:34.434Z,3.20
2018-02-17T10:44:02.785Z,3.00
2018-02-17T10:46:30.311Z,3.10
2018-02-17T10:48:57.820Z,3.00
2018-02-17T10:51:26.136Z,2.90
2018-02-17T10:53:53.652Z,2.80
2018-02-17T10:56:22.007Z,2.90
2018-02-17T10:58:49.565Z,2.90
2018-02-17T11:01:17.111Z,2.90
2018-02-17T11:03:44.647Z,2.90
2018-02-17T11:06:12.163Z,2.90
2018-02-17T11:08:39.705Z,2.80
2018-02-17T11:11:07.204Z,2.80
2018-02-17T11:13:35.498Z,2.90
2018-02-17T11:16:03.020Z,2.90
2018-02-17T11:18:31.296Z,2.80
2018-02-17T11:20:59.587Z,2.90
2018-02-17T11:23:27.864Z,2.80
2018-02-17T11:25:56.128Z,2.70
2018-02-17T11:28:24.426Z,2.80
2018-02-17T11:30:51.963Z,2.80
2018-02-17T11:33:20.283Z,2.60
2018-02-17T11:35:47.839Z,2.60
2018-02-17T11:38:15.336Z,2.70
2018-02-17T11:40:42.870Z,2.50
2018-02-17T11:43:10.387Z,2.40
2018-02-17T11:45:38.679Z,2.10
2018-02-17T11:48:06.200Z,2.10
2018-02-17T11:50:34.501Z,2.10
2018-02-17T11:53:02.036Z,2.10
2018-02-17T11:55:29.576Z,2.20
2018-02-17T11:57:57.098Z,2.10
2018-02-17T12:00:24.659Z,2.10
2018-02-17T12:02:52.199Z,2.00
2018-02-17T12:05:19.740Z,2.00
2018-02-17T12:07:48.061Z,2.20
2018-02-17T12:10:15.588Z,2.20
2018-02-17T12:12:43.881Z,1.90
2018-02-17T12:15:11.405Z,1.90
2018-02-17T12:17:39.716Z,2.00
2018-02-17T12:20:07.228Z,1.90
2018-02-17T12:22:34.804Z,1.90
2018-02-17T12:25:02.480Z,1.90
2018-02-17T12:27:30.083Z,1.90
2018-02-17T12:29:57.612Z,1.80
2018-02-17T12:32:25.140Z,1.80
2018-02-17T12:34:52.825Z,1.90
2018-02-17T12:37:20.469Z,1.80
2018-02-17T12:39:48.817Z,1.90
2018-02-17T12:42:16.280Z,1.90
2018-02-17T12:44:43.847Z,1.80
2018-02-17T12:47:11.606Z,1.90
2018-02-17T12:49:39.168Z,2.00
2018-02-17T12:52:06.684Z,2.00
2018-02-17T12:54:34.260Z,2.00
2018-02-17T12:57:01.976Z,2.00
2018-02-17T12:59:29.513Z,2.10
2018-02-17T13:01:57.038Z,2.10
2018-02-17T13:04:24.590Z,2.00
2018-02-17T13:06:52.228Z,2.00
2018-02-17T13:09:19.769Z,2.20
2018-02-17T13:11:48.067Z,2.20
2018-02-17T13:14:15.585Z,2.20
2018-02-17T13:16:43.151Z,2.10
2018-02-17T13:19:10.848Z,2.30
2018-02-17T13:21:38.394Z,2.30
2018-02-17T13:24:06.657Z,2.10
2018-02-17T13:26:34.940Z,2.10
2018-02-17T13:29:03.302Z,2.10
2018-02-17T13:31:30.823Z,2.00
2018-02-17T13:33:58.353Z,2.10
2018-02-17T13:36:25.859Z,2.00
2018-02-17T13:38:53.412Z,1.90
2018-02-17T13:41:20.952Z,2.00
2018-02-17T13:43:48.485Z,2.00
2018-02-17T13:46:16.003Z,1.90
2018-02-17T13:48:43.518Z,2.00
2018-02-17T13:51:11.827Z,2.00
2018-02-17T13:53:39.335Z,2.00
2018-02-17T13:56:06.844Z,2.10
2018-02-17T13:58:34.428Z,2.20
2018-02-17T14:01:01.946Z,2.20
2018-02-17T14:03:29.500Z,2.10
2018-02-17T14:05:57.030Z,2.30
2018-02-17T14:08:24.536Z,2.30
2018-02-17T14:10:52.085Z,2.30
2018-02-17T14:13:19.612Z,2.40
2018-02-17T14:15:47.142Z,2.30
2018-02-17T14:18:14.686Z,2.40
2018-02-17T14:20:42.220Z,2.40
2018-02-17T14:23:09.754Z,2.20
2018-02-17T14:25:37.275Z,2.10
2018-02-17T14:28:05.612Z,2.30
2018-02-17T14:30:33.131Z,2.30
2018-02-17T14:33:00.701Z,2.30
2018-02-17T14:35:30.278Z,2.30
2018-02-17T14:37:57.845Z,2.20
2018-02-17T14:40:26.121Z,2.20
2018-02-17T14:42:54.437Z,2.00
2018-02-17T14:45:21.939Z,2.00
2018-02-17T14:47:49.459Z,2.10
2018-02-17T14:50:16.984Z,2.10
2018-02-17T14:52:44.548Z,1.90
2018-02-17T14:55:12.081Z,1.90
2018-02-17T14:57:40.686Z,2.00
2018-02-17T15:00:08.999Z,2.00
2018-02-17T15:02:36.519Z,2.00
2018-02-17T15:05:05.964Z,2.10
2018-02-17T15:07:33.508Z,2.10
2018-02-17T15:10:01.022Z,2.20
2018-02-17T15:12:28.675Z,2.20
2018-02-17T15:14:56.213Z,2.20
2018-02-17T15:20:42.209Z,2.30
2018-02-17T15:23:09.793Z,2.50
2018-02-17T15:25:37.354Z,2.50
2018-02-17T15:28:04.862Z,2.50
2018-02-17T15:30:32.417Z,2.50
2018-02-17T15:33:00.161Z,2.60
2018-02-17T15:35:28.443Z,2.60
2018-02-17T15:37:59.083Z,2.50
2018-02-17T15:40:27.498Z,2.40
2018-02-17T15:42:55.019Z,2.40
2018-02-17T15:45:23.310Z,2.50
2018-02-17T15:47:50.860Z,2.50
2018-02-17T15:50:18.368Z,2.50
2018-02-17T15:52:45.904Z,2.50
2018-02-17T15:55:13.429Z,2.50
2018-02-17T15:57:41.747Z,2.60
2018-02-17T16:00:09.275Z,2.60
2018-02-17T16:02:36.817Z,2.50
2018-02-17T16:05:05.127Z,2.50
2018-02-17T16:07:32.686Z,2.50
2018-02-17T16:10:00.235Z,2.50
2018-02-17T16:12:27.770Z,2.40
2018-02-17T16:14:56.156Z,2.50
2018-02-17T16:17:24.448Z,2.50
2018-02-17T16:19:51.985Z,2.50
2018-02-17T16:22:20.311Z,2.40
2018-02-17T16:24:47.864Z,2.40
2018-02-17T16:27:15.417Z,2.40
2018-02-17T16:29:42.979Z,2.50
2018-02-17T16:32:10.478Z,2.50
2018-02-17T16:34:38.028Z,2.50
2018-02-17T16:37:05.614Z,2.60
2018-02-17T16:39:33.885Z,2.40
2018-02-17T16:42:02.166Z,2.50
2018-02-17T16:44:30.455Z,2.50
2018-02-17T16:46:58.760Z,2.50
2018-02-17T16:49:26.310Z,2.50
2018-02-17T16:51:53.865Z,2.50
2018-02-17T16:54:21.408Z,2.50
2018-02-17T16:56:49.743Z,2.50
2018-02-17T16:59:17.287Z,2.50
2018-02-17T17:01:44.830Z,2.40
2018-02-17T17:04:12.376Z,2.40
2018-02-17T17:06:39.939Z,2.40
2018-02-17T17:09:07.492Z,2.30
2018-02-17T17:11:35.016Z,2.40
2018-02-17T17:14:02.552Z,2.40
2018-02-17T17:16:30.082Z,2.40
2018-02-17T17:18:57.642Z,2.40
2018-02-17T17:21:25.164Z,2.40
2018-02-17T17:23:53.487Z,2.40
2018-02-17T17:26:21.022Z,2.40
2018-02-17T17:28:48.571Z,2.30
2018-02-17T17:31:16.067Z,2.20
2018-02-17T17:33:43.604Z,2.30
2018-02-17T17:36:11.111Z,2.40
2018-02-17T17:38:38.679Z,2.30
2018-02-17T17:41:06.977Z,2.20
2018-02-17T17:43:35.253Z,2.20
2018-02-17T17:46:03.559Z,2.10
2018-02-17T17:48:31.055Z,2.10
2018-02-17T17:50:58.572Z,2.20
2018-02-17T17:53:26.109Z,2.20
2018-02-17T17:55:54.387Z,2.20
2018-02-17T17:58:22.656Z,2.20
2018-02-17T18:00:50.977Z,2.10
2018-02-17T18:03:18.512Z,2.20
2018-02-17T18:05:46.008Z,2.10
2018-02-17T18:08:13.549Z,2.10
2018-02-17T18:10:41.066Z,2.10
2018-02-17T18:13:09.366Z,2.10
2018-02-17T18:15:36.867Z,2.10
2018-02-17T18:18:04.392Z,2.20
2018-02-17T18:20:31.931Z,2.10
2018-02-17T18:22:59.473Z,2.20
2018-02-17T18:25:27.835Z,2.20
2018-02-17T18:27:55.337Z,2.20
2018-02-17T18:30:22.882Z,2.30
2018-02-17T18:32:50.440Z,2.30
2018-02-17T18:35:18.727Z,2.30
2018-02-17T18:37:46.263Z,2.30
2018-02-17T18:40:14.544Z,2.20
2018-02-17T18:42:42.845Z,2.10
2018-02-17T18:45:10.376Z,2.10
2018-02-17T18:47:38.647Z,2.10
2018-02-17T18:50:07.111Z,2.20
2018-02-17T18:52:34.768Z,2.20
2018-02-17T18:55:02.311Z,2.20
2018-02-17T18:57:29.882Z,2.20
2018-02-17T18:59:57.434Z,2.30
2018-02-17T19:02:24.948Z,2.30
2018-02-17T19:04:52.521Z,2.30
2018-02-17T19:07:20.152Z,2.40
2018-02-17T19:09:48.496Z,2.20
2018-02-17T19:12:16.050Z,2.20
2018-02-17T19:14:43.572Z,2.10
2018-02-17T19:17:11.104Z,2.10
2018-02-17T19:19:39.615Z,2.00
2018-02-17T19:22:07.245Z,2.00
2018-02-17T19:24:35.659Z,1.90
2018-02-17T19:27:03.175Z,1.90
2018-02-17T19:29:31.486Z,1.90
2018-02-17T19:31:59.032Z,1.90
2018-02-17T19:34:27.387Z,2.10
2018-02-17T19:36:56.331Z,2.10
2018-02-17T19:39:23.935Z,2.10
2018-02-17T19:41:52.350Z,2.20
2018-02-17T19:44:19.869Z,2.20
2018-02-17T19:46:47.743Z,2.30
2018-02-17T19:49:16.486Z,2.30
2018-02-17T19:51:44.389Z,2.20
2018-02-17T19:54:11.983Z,2.20
2018-02-17T19:56:39.798Z,2.20
2018-02-17T19:59:07.907Z,2.20
2018-02-17T20:01:35.493Z,2.10
2018-02-17T20:04:04.269Z,2.20
2018-02-17T20:06:31.973Z,2.20
2018-02-17T20:12:47.639Z,2.20
2018-02-17T20:15:15.148Z,2.20
2018-02-17T20:17:42.913Z,2.20
2018-02-17T20:20:45.905Z,2.10
2018-02-17T20:23:14.787Z,2.10
2018-02-17T20:25:42.507Z,2.10
2018-02-17T20:28:10.385Z,2.20
2018-02-17T20:30:38.059Z,2.10
2018-02-17T20:33:05.867Z,2.10
2018-02-17T20:35:34.448Z,2.10
2018-02-17T20:38:03.155Z,2.20
2018-02-17T20:40:32.155Z,2.20
2018-02-17T20:43:00.789Z,2.20
2018-02-17T20:45:29.061Z,2.20
2018-02-17T20:47:57.843Z,2.20
2018-02-17T20:50:26.537Z,2.10
2018-02-17T20:52:54.239Z,2.10
2018-02-17T20:55:21.880Z,2.10
2018-02-17T20:57:49.477Z,2.20
2018-02-17T21:00:17.064Z,2.20
2018-02-17T21:02:44.658Z,2.20
2018-02-17T21:05:12.170Z,2.20
2018-02-17T21:07:39.724Z,2.20
2018-02-17T21:10:07.259Z,2.20
2018-02-17T21:12:35.617Z,2.10
2018-02-17T21:15:03.165Z,2.10
2018-02-17T21:17:30.675Z,2.10
2018-02-17T21:19:58.990Z,2.10
2018-02-17T21:22:26.550Z,2.10
2018-02-17T21:28:04.655Z,2.10
2018-02-17T21:30:32.233Z,2.10
2018-02-17T21:32:59.780Z,2.10
2018-02-17T21:35:27.324Z,2.00
2018-02-17T21:37:54.882Z,2.00
2018-02-17T21:40:22.425Z,2.00
2018-02-17T21:42:50.691Z,2.00
2018-02-17T21:45:18.996Z,1.90
2018-02-17T21:47:46.560Z,1.90
2018-02-17T21:50:14.061Z,1.90
2018-02-17T21:52:41.650Z,1.90
2018-02-17T21:55:09.225Z,1.90
2018-02-17T21:57:36.765Z,1.90
2018-02-17T22:00:05.080Z,1.90
2018-02-17T22:02:32.598Z,1.90
2018-02-17T22:05:00.884Z,1.90
2018-02-17T22:07:29.148Z,1.90
2018-02-17T22:09:57.436Z,1.90
2018-02-17T22:12:25.741Z,1.90
2018-02-17T22:14:53.271Z,1.90
2018-02-17T22:17:21.562Z,1.90
2018-02-17T22:19:49.070Z,1.90
2018-02-17T22:22:16.594Z,1.80
2018-02-17T22:24:44.148Z,1.80
2018-02-17T22:27:12.443Z,1.80
2018-02-17T22:29:40.450Z,1.80
2018-02-17T22:32:08.003Z,1.80
2018-02-17T22:34:35.543Z,1.80
2018-02-17T22:37:03.097Z,1.70
2018-02-17T22:39:30.640Z,1.70
2018-02-17T22:41:58.290Z,1.70
2018-02-17T22:44:25.856Z,1.60
2018-02-17T22:46:53.357Z,1.60
2018-02-17T22:49:20.879Z,1.50
2018-02-17T22:51:49.036Z,1.40
2018-02-17T22:54:16.588Z,1.40
2018-02-17T22:56:44.132Z,1.40
2018-02-17T22:59:12.396Z,1.40
2018-02-17T23:01:39.916Z,1.40
2018-02-17T23:04:07.456Z,1.30
2018-02-17T23:06:34.947Z,1.30
2018-02-17T23:09:02.513Z,1.30
2018-02-17T23:11:30.043Z,1.30
2018-02-17T23:13:57.555Z,1.20
2018-02-17T23:16:25.870Z,1.10
2018-02-17T23:18:54.180Z,1.00
2018-02-17T23:21:21.693Z,1.00
2018-02-17T23:23:49.195Z,1.00
2018-02-17T23:26:16.729Z,1.00
2018-02-17T23:28:44.259Z,1.00
2018-02-17T23:31:11.768Z,1.00
2018-02-17T23:33:39.287Z,1.00
2018-02-17T23:36:06.791Z,0.90
2018-02-17T23:38:34.339Z,0.90
2018-02-17T23:41:01.872Z,0.90
2018-02-17T23:43:29.372Z,0.90
2018-02-17T23:45:56.872Z,0.90
2018-02-17T23:48:24.399Z,0.90
2018-02-17T23:50:51.892Z,0.80
2018-02-17T23:53:19.423Z,0.80
2018-02-17T23:55:47.704Z,0.80
2018-02-17T23:58:15.974Z,0.80
